Latest Weather Observations for Mount Hotham Airport

IDV60801

Issued at 8:52 am EST Wednesday 18 September 2019 (issued every 10 minutes, with the page automatically refreshed every 10 minutes)

About weather observations | Map of weather stations | Latest weather observations for VIC | Other Formats
Station Details ID: 083055 Name: MOUNT HOTHAM AIRPORT Lat: -37.05 Lon: 147.33 Height: 1295.4 m
Data from the previous 72 hours. | See also: Recent months at Mount Hotham Airport
Date/Time
EST
Temp
°C
App
Temp
°C
Dew
Point
°C
Rel
Hum
%
Delta-T
°C
Wind Press
QNH
hPa
Press
MSL
hPa
Rain since
9am
mm
Dir  Spd
km/h
Gust
km/h
Spd
kts
Gust
kts
18/08:30am 6.1 3.5 1.1 70 2.2 E 4 7 2 4 1028.1 1028.3 0.0
18/08:00am 5.3 3.3 2.5 82 1.2 NNW 2 4 1 2 1027.8 1028.0 0.0
18/07:30am 3.5 1.7 3.2 98 0.1 NNW 2 4 1 2 1027.5 1027.7 0.0
18/07:00am 0.9 -1.3 0.8 99 0.0 NW 2 6 1 3 1027.2 1027.4 0.0
18/06:30am -0.2 -3.0 -0.3 99 0.0 NW 4 6 2 3 1027.1 1027.3 0.0
18/06:00am -1.6 -5.0 -1.7 99 0.0 W 6 7 3 4 1026.7 1026.9 0.0
18/05:30am -3.2 -6.8 -3.3 99 -0.1 NW 6 6 3 3 1026.9 1027.0 0.0
18/05:00am -2.0 -5.0 -2.1 99 -0.1 WNW 4 6 2 3 1026.7 1026.9 0.0
18/04:30am -1.9 -5.3 -2.0 99 -0.1 NW 6 7 3 4 1026.6 1026.8 0.0
18/04:00am -1.8 -5.2 -1.9 99 -0.1 WNW 6 6 3 3 1026.5 1026.7 0.0
18/03:37am -1.6 -5.0 -1.7 99 0.0 WNW 6 6 3 3 1026.4 1026.6 0.0
18/03:30am -1.7 -5.1 -1.8 99 0.0 WNW 6 6 3 3 1026.4 1026.6 0.0
18/03:05am -1.7 -4.7 -1.8 99 0.0 W 4 6 2 3 1026.5 1026.7 0.0
18/03:00am -1.6 -4.6 -1.7 99 0.0 W 4 6 2 3 1026.5 1026.7 0.0
18/02:30am -2.7 -5.1 -2.8 99 -0.1 CALM 0 6 0 3 1026.9 1027.0 0.0
18/02:00am -2.3 -5.7 -2.4 99 -0.1 NW 6 7 3 4 1026.9 1027.0 0.0
18/01:49am -2.0 -5.0 -2.1 99 -0.1 NW 4 6 2 3 1027.0 1027.1 0.0
18/01:48am -2.0 -5.0 -2.1 99 -0.1 WNW 4 7 2 4 1027.0 1027.1 0.0
18/01:30am -2.7 -6.2 -2.8 99 -0.1 WNW 6 7 3 4 1027.2 1027.4 0.0
18/01:00am -1.7 -5.1 -1.8 99 0.0 WNW 6 7 3 4 1027.4 1027.6 0.0
18/12:45am -1.9 -5.5 -2.0 99 -0.1 NW 7 9 4 5 1027.4 1027.6 0.0
18/12:30am -1.2 -4.5 -1.3 99 0.0 NNW 6 7 3 4 1027.4 1027.6 0.0
18/12:00am -0.2 -3.4 -0.3 99 0.0 N 6 7 3 4 1027.3 1027.5 0.0
 
Date/Time
EST
Temp
°C
App
Temp
°C
Dew
Point
°C
Rel
Hum
%
Delta-T
°C
Wind Press
QNH
hPa
Press
MSL
hPa
Rain since
9am
mm
Dir  Spd
km/h
Gust
km/h
Spd
kts
Gust
kts
17/11:30pm 0.5 -2.2 0.4 99 0.0 NNW 4 7 2 4 1027.2 1027.4 0.0
17/11:00pm 0.8 -2.2 0.7 99 0.0 N 6 7 3 4 1027.2 1027.4 0.0
17/10:30pm 0.6 -1.7 0.5 99 0.0 NW 2 4 1 2 1027.4 1027.6 0.0
17/10:00pm 0.5 -1.4 0.4 99 0.0 CALM 0 0 0 0 1027.3 1027.5 0.0
17/09:30pm -0.5 -2.6 -0.6 99 0.0 CALM 0 0 0 0 1027.3 1027.5 0.0
17/09:26pm -0.3 -2.3 -0.4 99 0.0 CALM 0 0 0 0 1027.3 1027.5 0.0
17/09:00pm -0.5 -2.6 -0.6 99 0.0 CALM 0 0 0 0 1027.2 1027.4 0.0
17/08:46pm -1.2 -3.4 -1.3 99 0.0 CALM 0 0 0 0 1027.1 1027.3 0.0
17/08:42pm -1.1 -3.3 -1.2 99 0.0 CALM 0 0 0 0 1027.1 1027.3 0.0
17/08:30pm -1.6 -3.8 -1.7 99 0.0 CALM 0 0 0 0 1027.0 1027.1 0.0
17/08:29pm -1.4 -3.6 -1.5 99 0.0 CALM 0 0 0 0 1027.0 1027.1 0.0
17/08:23pm -1.3 -3.5 -1.4 99 0.0 CALM 0 0 0 0 1027.0 1027.1 0.0
17/08:06pm -0.1 -2.1 -0.2 99 0.0 CALM 0 2 0 1 1026.9 1027.0 0.0
17/08:00pm -0.3 -2.3 -0.4 99 0.0 CALM 0 2 0 1 1026.9 1027.0 0.0
17/07:53pm 0.0 -2.0 -0.1 99 0.0 CALM 0 2 0 1 1026.7 1026.9 0.0
17/07:30pm 0.3 -2.0 0.2 99 0.0 SSE 2 4 1 2 1026.5 1026.7 0.0
17/07:00pm -0.3 -2.4 -1.1 94 0.3 CALM 0 0 0 0 1026.0 1026.1 0.0
17/06:30pm 1.1 -2.0 -0.1 92 0.5 E 6 6 3 3 1025.5 1025.6 0.0
17/06:00pm 2.2 -1.1 0.3 87 0.8 ESE 7 9 4 5 1025.6 1025.7 0.0
17/05:30pm 3.6 0.6 1.0 83 1.1 ESE 6 13 3 7 1025.5 1025.6 0.0
17/05:00pm 4.3 0.0 0.8 78 1.5 ESE 13 19 7 10 1025.3 1025.4 0.0
17/04:30pm 4.4 0.8 0.9 78 1.5 ESE 9 13 5 7 1025.2 1025.3 0.0
17/04:25pm 4.4 0.5 0.9 78 1.5 ESE 11 15 6 8 1025.2 1025.3 0.0
17/04:00pm 4.3 0.7 0.8 78 1.5 ESE 9 15 5 8 1025.0 1025.2 0.0
17/03:38pm 4.4 0.8 0.4 75 1.7 ESE 9 15 5 8 1024.9 1025.0 0.0
17/03:31pm 4.5 0.8 0.1 73 1.8 ESE 9 13 5 7 1024.8 1024.9 0.0
17/03:30pm 4.7 1.1 0.5 74 1.8 ESE 9 13 5 7 1024.8 1024.9 0.0
17/03:00pm 4.1 0.5 0.6 78 1.5 E 9 13 5 7 1024.8 1024.9 0.0
17/02:30pm 4.3 0.4 1.0 79 1.4 ESE 11 17 6 9 1024.7 1024.8 0.0
17/02:00pm 3.4 -0.2 0.3 80 1.3 E 9 17 5 9 1024.9 1025.0 0.0
17/01:30pm 3.3 -0.8 -0.3 77 1.5 ESE 11 19 6 10 1024.8 1024.9 0.0
17/01:00pm 3.9 -0.5 0.4 78 1.4 E 13 24 7 13 1024.6 1024.7 0.0
17/12:30pm 4.0 -0.8 0.5 78 1.5 ESE 15 22 8 12 1024.6 1024.7 0.0
17/12:00pm 3.7 -1.5 -0.1 76 1.5 E 17 28 9 15 1024.5 1024.6 0.0
17/11:30am 3.5 -1.0 -0.1 77 1.5 E 13 20 7 11 1024.8 1024.9 0.0
17/11:00am 3.8 -1.8 0.1 77 1.5 E 19 30 10 16 1024.8 1024.9 0.0
17/10:30am 2.0 -3.0 -1.4 78 1.3 ESE 15 20 8 11 1025.0 1025.2 0.0
17/10:00am 1.5 -3.9 -1.7 79 1.2 SE 17 24 9 13 1024.8 1024.9 0.0
17/09:30am 2.1 -3.1 -0.2 85 0.9 ESE 17 28 9 15 1024.7 1024.8 0.0
17/09:07am 0.1 -5.9 -2.9 80 1.1 ESE 19 26 10 14 1024.7 1024.8 0.0
17/09:00am 0.2 -5.8 -2.7 81 1.1 ESE 19 30 10 16 1024.6 1024.7 5.4
17/08:30am -0.2 -5.4 -2.4 85 0.8 ESE 15 22 8 12 1024.1 1024.2 5.4
17/08:17am -0.6 -5.3 -1.9 91 0.5 ESE 13 17 7 9 1024.0 1024.1 5.4
17/08:00am -1.4 -6.1 -1.7 98 0.0 E 13 15 7 8 1023.8 1023.9 5.4
17/07:30am -2.3 -6.3 -2.4 99 -0.1 ESE 9 15 5 8 1023.6 1023.6 5.4
17/07:00am -2.6 -7.0 -2.7 99 -0.1 SE 11 17 6 9 1023.1 1023.2 5.4
17/06:30am -3.0 -7.9 -3.3 98 0.0 SE 13 17 7 9 1022.8 1022.8 5.4
17/06:00am -3.0 -7.9 -3.3 98 0.0 SE 13 19 7 10 1022.4 1022.5 5.4
17/05:52am -3.0 -7.9 -3.3 98 0.0 SE 13 20 7 11 1022.3 1022.4 5.4
17/05:39am -3.2 -7.4 -3.6 97 0.0 SE 9 13 5 7 1022.2 1022.2 5.4
17/05:30am -3.1 -7.6 -3.5 97 0.0 SE 11 17 6 9 1022.1 1022.1 5.4
17/05:00am -3.8 -7.4 -3.9 99 -0.1 ESE 6 15 3 8 1021.9 1021.9 5.4
17/04:33am -6.0 -9.9 -6.7 95 0.0 ESE 6 7 3 4 1021.8 1021.8 5.4
17/04:30am -6.2 -10.1 -6.9 95 0.0 ESE 6 7 3 4 1021.6 1021.7 5.4
17/04:00am -5.4 -8.9 -5.9 96 -0.1 SE 4 7 2 4 1021.6 1021.7 5.4
17/03:30am -6.4 -10.0 -7.3 93 0.0 SSE 4 7 2 4 1021.5 1021.5 5.4
17/03:00am -5.8 -8.9 -6.6 94 0.0 SE 2 4 1 2 1021.8 1021.8 5.4
17/02:30am -5.0 -8.8 -5.8 94 0.1 SSE 6 7 3 4 1021.9 1021.9 5.4
17/02:00am -4.4 -8.7 -5.2 94 0.1 SSE 9 13 5 7 1021.9 1021.9 5.4
17/01:59am -4.3 -8.6 -5.1 94 0.1 SSE 9 13 5 7 1021.9 1021.9 5.4
17/01:30am -3.7 -8.0 -4.4 95 0.1 SSE 9 17 5 9 1021.9 1021.9 5.4
17/01:24am -3.6 -7.8 -4.3 95 0.1 SSE 9 15 5 8 1021.8 1021.8 5.4
17/01:03am -3.3 -7.2 -4.6 91 0.3 SSE 7 13 4 7 1021.8 1021.8 5.4
17/01:00am -3.3 -7.6 -4.7 90 0.3 SSE 9 13 5 7 1021.8 1021.8 5.4
17/12:56am -3.4 -7.3 -4.8 90 0.3 SSE 7 11 4 6 1021.8 1021.8 5.4
17/12:30am -3.7 -8.4 -5.5 87 0.4 S 11 17 6 9 1021.5 1021.5 5.4
17/12:00am -3.1 -8.5 -4.8 88 0.4 S 15 22 8 12 1021.5 1021.5 5.4
 
Date/Time
EST
Temp
°C
App
Temp
°C
Dew
Point
°C
Rel
Hum
%
Delta-T
°C
Wind Press
QNH
hPa
Press
MSL
hPa
Rain since
9am
mm
Dir  Spd
km/h
Gust
km/h
Spd
kts
Gust
kts
16/11:31pm -2.5 -8.2 -3.9 90 0.4 S 17 24 9 13 1021.6 1021.7 5.4
16/11:30pm -2.5 -7.8 -3.9 90 0.4 S 15 24 8 13 1021.6 1021.7 5.4
16/11:00pm -2.1 -7.3 -3.1 93 0.3 S 15 22 8 12 1021.5 1021.5 5.4
16/10:30pm -2.1 -6.6 -3.2 92 0.3 S 11 20 6 11 1021.4 1021.4 5.4
16/10:28pm -2.1 -7.0 -3.2 92 0.3 S 13 20 7 11 1021.4 1021.4 5.4
16/10:10pm -2.3 -7.9 -3.3 93 0.2 S 17 22 9 12 1021.3 1021.3 5.4
16/10:00pm -2.3 -7.5 -2.8 96 0.1 S 15 22 8 12 1021.3 1021.3 5.4
16/09:30pm -1.7 -6.1 -2.4 95 0.2 SSE 11 22 6 12 1021.4 1021.4 5.4
16/09:29pm -1.6 -6.0 -2.3 95 0.2 SSE 11 22 6 12 1021.4 1021.4 5.4
16/09:00pm -1.4 -5.4 -2.4 93 0.3 SSE 9 15 5 8 1021.3 1021.3 5.4
16/08:46pm -1.3 -5.7 -2.6 91 0.4 S 11 19 6 10 1021.2 1021.2 5.4
16/08:30pm -1.3 -5.7 -2.6 91 0.4 S 11 15 6 8 1021.0 1021.0 5.4
16/08:00pm -1.1 -6.3 -3.0 87 0.6 S 15 20 8 11 1020.9 1020.8 5.4
16/07:47pm -1.0 -6.2 -3.0 86 0.7 S 15 22 8 12 1021.0 1021.0 5.4
16/07:30pm -0.8 -5.6 -2.7 87 0.7 S 13 22 7 12 1020.7 1020.7 5.4
16/07:00pm -0.6 -5.8 -2.5 87 0.7 S 15 24 8 13 1020.3 1020.3 5.4
16/06:59pm -0.6 -5.8 -2.5 87 0.7 S 15 24 8 13 1020.3 1020.3 5.4
16/06:36pm -0.5 -5.6 -2.2 88 0.6 S 15 24 8 13 1019.8 1019.8 5.4
16/06:30pm -0.5 -5.6 -2.2 88 0.6 S 15 22 8 12 1019.9 1019.9 5.4
16/06:00pm -0.3 -5.7 -1.3 93 0.4 SSE 17 28 9 15 1019.4 1019.3 5.4
16/05:30pm 0.0 -4.2 -0.6 96 0.2 SSE 11 19 6 10 1019.2 1019.1 5.4
16/05:00pm 0.1 -4.4 -0.6 95 0.3 S 13 20 7 11 1018.7 1018.6 5.4
16/04:53pm 0.1 -4.4 -0.5 96 0.2 S 13 20 7 11 1018.6 1018.5 5.4
16/04:30pm 0.3 -4.2 -0.1 97 0.2 S 13 28 7 15 1018.6 1018.5 5.4
16/04:01pm 0.4 -4.0 0.3 99 0.0 S 13 20 7 11 1018.4 1018.3 5.4
16/04:00pm 0.2 -4.2 0.1 99 0.0 S 13 20 7 11 1018.4 1018.3 5.4
16/03:49pm 0.1 -4.4 0.0 99 0.0 S 13 22 7 12 1018.1 1018.0 5.4
16/03:31pm -0.1 -5.7 -0.2 99 0.0 S 19 33 10 18 1018.0 1017.9 5.4
16/03:30pm -0.1 -5.3 -0.2 99 0.0 S 17 33 9 18 1018.0 1017.9 5.4
16/03:00pm 1.3 -3.0 1.2 99 0.0 S 13 20 7 11 1017.3 1017.2 5.4
16/02:59pm 1.2 -3.5 1.1 99 0.0 S 15 24 8 13 1017.3 1017.2 5.4
16/02:39pm 1.1 -3.2 1.0 99 0.0 S 13 20 7 11 1017.6 1017.5 5.4
16/02:34pm 1.4 -3.2 1.3 99 0.0 S 15 20 8 11 1017.4 1017.3 5.4
16/02:30pm 1.5 -3.1 1.4 99 0.0 S 15 24 8 13 1017.4 1017.3 5.4
16/02:21pm 1.3 -3.7 1.2 99 0.0 SSW 17 24 9 13 1017.4 1017.3 5.4
16/02:18pm 1.0 -4.5 0.9 99 0.0 SSW 19 26 10 14 1017.3 1017.2 5.4
16/02:00pm 1.1 -3.2 1.0 99 0.0 S 13 22 7 12 1017.7 1017.6 5.4
16/01:58pm 1.2 -2.7 1.1 99 0.0 S 11 20 6 11 1017.6 1017.5 5.4
16/01:51pm 1.3 -3.0 1.2 99 0.0 S 13 20 7 11 1017.3 1017.2 5.4
16/01:30pm 1.4 -3.2 1.3 99 0.0 SSE 15 22 8 12 1017.0 1016.9 5.4
16/01:06pm 2.0 -1.4 1.9 99 0.0 S 9 15 5 8 1016.8 1016.6 5.4
16/01:02pm 1.9 -1.9 1.8 99 0.0 S 11 15 6 8 1016.9 1016.7 5.4
16/01:00pm 2.0 -1.8 1.9 99 0.0 S 11 15 6 8 1016.9 1016.7 5.4
16/12:30pm 1.8 -2.4 1.7 99 0.0 SSE 13 19 7 10 1016.7 1016.5 5.4
16/12:08pm 1.7 -2.5 1.6 99 0.0 S 13 19 7 10 1016.8 1016.6 5.4
16/12:00pm 1.8 -2.0 1.7 99 0.0 S 11 19 6 10 1017.0 1016.9 5.4
16/11:48am 1.7 -2.5 1.6 99 0.0 S 13 22 7 12 1017.1 1017.0 5.4
16/11:30am 2.2 -3.3 2.1 99 0.0 S 20 30 11 16 - - 5.4
16/11:00am 2.6 -1.5 2.5 99 0.0 SSW 13 17 7 9 1017.1 1017.0 5.4
16/10:37am 2.6 -1.5 2.5 99 0.0 S 13 22 7 12 1016.8 1016.6 5.4
16/10:30am 2.7 -1.3 2.6 99 0.0 S 13 17 7 9 1016.8 1016.6 5.2
16/10:00am 3.4 -0.6 3.1 98 0.1 S 13 19 7 10 1016.9 1016.7 4.6
16/09:49am 4.2 -0.4 3.5 95 0.3 SSW 17 26 9 14 1017.1 1017.0 3.8
16/09:30am 5.8 1.4 4.8 93 0.5 WNW 17 35 9 19 1015.9 1015.7 2.0
16/09:23am 5.8 1.8 4.8 93 0.5 WNW 15 35 8 19 1016.3 1016.2 1.6
16/09:08am 5.8 -0.8 4.3 90 0.7 W 28 46 15 25 1016.7 1016.5 1.0
16/09:00am 5.9 0.2 4.7 92 0.6 W 24 39 13 21 1016.8 1016.6 18.6
16/08:50am 6.0 0.6 4.6 91 0.7 WNW 22 41 12 22 1016.7 1016.5 17.6
16/08:47am 6.1 0.4 4.7 91 0.7 W 24 41 13 22 1016.7 1016.5 17.2
16/08:30am 6.1 1.2 4.9 92 0.6 W 20 43 11 23 1016.8 1016.6 15.6
16/08:21am 6.3 1.0 4.9 91 0.7 W 22 37 12 20 1016.7 1016.5 14.4
16/08:00am 6.9 2.3 5.5 91 0.7 W 19 32 10 17 1016.5 1016.4 12.6
16/07:44am 7.0 2.2 5.6 91 0.7 W 20 30 11 16 1016.3 1016.2 12.0
16/07:34am 7.0 1.8 5.6 91 0.7 W 22 37 12 20 1016.3 1016.2 11.4
16/07:30am 7.1 1.9 5.7 91 0.7 W 22 35 12 19 1016.7 1016.5 11.2
16/07:29am 7.1 1.9 5.7 91 0.7 W 22 41 12 22 1016.7 1016.5 11.0
16/07:09am 7.7 4.2 7.0 95 0.4 W 15 24 8 13 1016.5 1016.4 9.4
16/07:00am 7.8 3.9 6.9 94 0.5 W 17 26 9 14 1015.7 1015.6 9.0
16/06:30am 8.1 3.6 6.9 92 0.6 WNW 20 35 11 19 1015.6 1015.5 8.4
16/06:00am 7.7 2.0 6.5 92 0.6 NW 26 37 14 20 1014.8 1014.6 7.2
16/05:30am 7.6 3.2 6.7 94 0.4 NW 19 28 10 15 1015.0 1014.8 6.0
16/05:00am 7.8 3.9 7.2 96 0.3 WNW 17 26 9 14 1015.7 1015.6 4.8
16/04:30am 7.9 3.7 7.3 96 0.3 WNW 19 30 10 16 1015.0 1014.8 3.2
16/04:15am 8.1 2.9 7.2 94 0.5 WNW 24 35 13 19 1015.3 1015.1 2.4
16/04:04am 8.1 1.7 6.9 92 0.6 WNW 30 44 16 24 1015.2 1015.0 1.8
16/04:00am 8.1 1.7 6.9 92 0.6 WNW 30 46 16 25 1015.1 1014.9 1.6
16/03:30am 8.1 2.3 6.4 89 0.8 WNW 26 43 14 23 1014.8 1014.6 1.2
16/03:15am 8.4 0.5 6.2 86 1.1 WNW 37 56 20 30 1014.8 1014.6 0.8
16/03:00am 8.5 -0.2 6.0 84 1.2 WNW 41 56 22 30 1014.6 1014.4 0.6
16/02:30am 9.1 1.1 5.7 79 1.7 WNW 37 56 20 30 1014.3 1014.1 0.4
16/02:16am 8.8 -0.6 5.4 79 1.7 NW 44 63 24 34 1014.3 1014.1 0.4
16/02:00am 9.2 -0.9 5.6 78 1.8 NW 48 63 26 34 1014.3 1014.1 0.4
16/01:30am 9.6 -0.7 4.8 72 2.3 NW 48 63 26 34 1014.5 1014.3 0.2
16/01:00am 10.0 -0.4 4.4 68 2.7 NW 48 63 26 34 1014.6 1014.4 0.2
16/12:30am 9.8 -0.5 4.8 71 2.4 NW 48 63 26 34 1014.7 1014.5 0.2
16/12:01am 9.5 -0.3 5.3 75 2.1 NW 46 65 25 35 1015.0 1014.8 0.2
16/12:00am 9.5 -0.7 5.1 74 2.1 NW 48 65 26 35 1014.8 1014.6 0.2
 
Date/Time
EST
Temp
°C
App
Temp
°C
Dew
Point
°C
Rel
Hum
%
Delta-T
°C
Wind Press
QNH
hPa
Press
MSL
hPa
Rain since
9am
mm
Dir  Spd
km/h
Gust
km/h
Spd
kts
Gust
kts
15/11:30pm 9.0 0.1 5.0 76 1.9 NW 41 59 22 32 1015.7 1015.6 0.2
15/11:00pm 8.5 0.7 4.9 78 1.7 NW 35 54 19 29 1016.7 1016.5 0.2
15/10:30pm 8.0 0.6 4.2 77 1.8 NW 32 50 17 27 1017.3 1017.2 0.2
15/10:00pm 8.3 -0.1 3.8 73 2.1 NW 37 56 20 30 1017.8 1017.7 0.2
15/09:30pm 8.4 0.5 4.4 76 1.9 NW 35 56 19 30 1017.8 1017.7 0.2
15/09:08pm 7.7 -0.1 4.7 81 1.4 NW 35 54 19 29 1017.8 1017.7 0.2
15/09:00pm 7.7 -0.9 4.5 80 1.5 NW 39 50 21 27 1017.9 1017.8 0.2
15/08:30pm 7.7 0.2 4.5 80 1.5 NW 33 56 18 30 1018.4 1018.3 0.0
15/08:03pm 9.0 1.9 1.4 59 3.4 NW 28 48 15 26 1018.8 1018.7 0.0
15/08:00pm 9.3 2.9 1.2 57 3.6 NNW 24 39 13 21 1018.8 1018.7 0.0
15/07:31pm 9.4 2.3 1.3 57 3.6 NW 28 48 15 26 1019.4 1019.3 0.0
15/07:30pm 9.5 3.2 1.4 57 3.6 NW 24 41 13 22 1019.5 1019.4 0.0
15/07:00pm 10.3 5.2 0.6 51 4.3 NW 17 26 9 14 1018.9 1018.9 0.0
15/06:30pm 9.3 3.8 0.5 54 3.9 NW 19 32 10 17 1018.9 1018.9 0.0
15/06:00pm 10.0 2.5 1.1 54 4.0 NW 30 50 16 27 1018.6 1018.5 0.0
15/05:54pm 10.0 2.9 1.4 55 3.9 NW 28 46 15 25 1018.5 1018.4 0.0
15/05:30pm 10.0 4.3 0.6 52 4.2 NNW 20 37 11 20 1018.1 1018.0 0.0
15/05:00pm 11.1 4.6 0.5 48 4.7 NW 24 33 13 18 1018.7 1018.6 0.0
15/04:30pm 11.3 4.1 0.4 47 4.9 NW 28 43 15 23 1018.4 1018.3 0.0
15/04:00pm 12.3 4.9 1.6 48 4.9 NW 30 50 16 27 1018.6 1018.5 0.0
15/03:38pm 12.5 5.4 1.5 47 5.1 NW 28 56 15 30 1018.6 1018.5 0.0
15/03:30pm 12.9 7.3 1.0 44 5.4 NW 20 39 11 21 1018.6 1018.5 0.0
15/03:00pm 13.2 7.6 1.2 44 5.5 NW 20 37 11 20 1018.9 1018.9 0.0
15/02:43pm 13.1 6.0 1.1 44 5.5 NW 28 46 15 25 1019.2 1019.1 0.0
15/02:30pm 13.5 6.8 1.5 44 5.6 NW 26 41 14 22 1019.0 1019.0 0.0
15/02:03pm 12.4 3.5 0.5 44 5.4 NW 37 56 20 30 1019.4 1019.3 0.0
15/02:00pm 12.5 3.6 0.9 45 5.3 NW 37 52 20 28 1019.6 1019.6 0.0
15/01:43pm 13.2 5.9 0.3 41 5.8 WNW 28 48 15 26 1019.9 1019.9 0.0
15/01:30pm 13.1 5.9 0.5 42 5.7 WNW 28 39 15 21 1020.2 1020.1 0.0
15/01:00pm 13.6 6.3 2.2 46 5.4 NW 30 46 16 25 1020.5 1020.5 0.0
15/12:33pm 13.6 5.2 3.7 51 4.8 WNW 37 56 20 30 1021.0 1021.0 0.0
15/12:30pm 12.3 3.3 2.2 50 4.7 NW 39 56 21 30 1021.0 1021.0 0.0
15/12:00pm 13.2 5.5 3.6 52 4.6 NW 33 54 18 29 1021.3 1021.3 0.0
15/11:49am 12.5 5.9 4.0 56 4.1 NW 28 46 15 25 1021.4 1021.4 0.0
15/11:30am 12.4 6.1 3.9 56 4.1 WNW 26 41 14 22 1021.6 1021.7 0.0
15/11:00am 12.5 6.0 4.5 58 3.9 NW 28 44 15 24 1022.1 1022.1 0.0
15/10:32am 12.2 6.0 6.3 67 3.0 WNW 28 46 15 25 1022.3 1022.4 0.0
15/10:30am 11.5 4.4 5.4 66 3.0 WNW 32 46 17 25 1022.3 1022.4 0.0
15/10:13am 12.6 6.7 7.5 71 2.7 WNW 28 50 15 27 1022.3 1022.4 0.0
15/10:00am 11.1 6.2 7.0 76 2.1 W 22 41 12 22 1022.6 1022.6 0.0
15/09:30am 11.6 9.5 6.5 71 2.6 NW 7 11 4 6 1022.4 1022.5 0.0
15/09:00am 9.1 5.7 5.8 80 1.6 NNW 13 19 7 10 1022.4 1022.5 0.0

Other formats

Comma delimited format used in spreadsheet applications
http://www.bom.gov.au/fwo/IDV60801/IDV60801.94905.axf

JavaScript Object Notation format (JSON) in row-major order
http://www.bom.gov.au/fwo/IDV60801/IDV60801.94905.json

Data quality

Most of these data are generated automatically and are frequently updated. Quality checks on data are not normally performed. It is possible for incorrect values to appear. Refer to information at About Latest Weather Observations and please check the disclaimer before using these data.